Time;durP1;ratioP1;P1;durP2;ratioP2;P2;SDS_P1;SDS_P2;PMS_P1;PMS_P2;Temp;Humidity;BMP_temperature;BMP_pressure;BME280_temperature;BME280_humidity;BME280_pressure;Samples;Min_cycle;Max_cycle;Signal;HPM_P1;HPM_P2
2022/07/07 05:37:07;;;;;;;;;;;;;;;15.98;100.00;100515.47;5230684;23;19925;-84
2022/07/07 07:46:15;;;;;;;;;;;;;;;16.75;100.00;100771.47;6048077;23;19932;31
2022/07/07 09:42:41;;;;;;;;;;;;;;;19.18;100.00;100931.03;5929666;23;19949;-81
2022/07/07 10:00:37;;;;;;;;;;;;;;;19.19;100.00;100957.22;5697623;23;19917;-84
2022/07/07 11:17:02;;;;;;;;;;;;;;;19.60;94.68;101039.63;5677195;23;19930;-82
2022/07/07 11:19:33;;;;;;;;;;;;;;;19.52;96.29;101048.25;4942606;29;19911;-84
2022/07/07 17:19:03;;;;;;;;;;;;;;;21.67;75.01;101425.44;6026699;23;20035;-79
2022/07/07 19:33:51;;;;;;;;;;;;;;;20.01;89.08;101580.19;5169561;23;19911;-84
2022/07/07 19:36:16;;;;;;;;;;;;;;;19.84;92.29;101582.84;4933898;29;19982;-83
2022/07/07 20:33:08;;;;;;;;;;;;;;;18.81;100.00;101652.47;5871826;23;19919;-82
2022/07/07 20:35:34;;;;;;;;;;;;;;;18.77;98.60;101652.09;4947150;29;19907;-83
2022/07/07 21:01:18;;;;;;;;;;;;;;;18.80;100.00;101657.09;5849357;23;19934;-80
2022/07/07 21:03:44;;;;;;;;;;;;;;;18.69;100.00;101661.41;4942778;29;19933;-82
2022/07/07 21:06:09;;;;;;;;;;;;;;;18.58;100.00;101659.50;4945646;29;19907;-82
2022/07/07 21:08:35;;;;;;;;;;;;;;;18.56;100.00;101661.59;4969829;29;19923;-82
2022/07/07 21:11:00;;;;;;;;;;;;;;;18.43;100.00;101656.34;4959727;29;19914;-80
2022/07/07 21:13:26;;;;;;;;;;;;;;;18.39;100.00;101668.78;4961334;28;19920;-83
2022/07/07 21:15:51;;;;;;;;;;;;;;;18.39;100.00;101660.59;5412825;23;19938;-80
2022/07/07 21:18:17;;;;;;;;;;;;;;;18.31;100.00;101654.41;4962478;28;19913;-83
2022/07/07 21:23:18;;;;;;;;;;;;;;;18.22;100.00;101658.50;5801579;23;19969;-81
2022/07/07 21:25:43;;;;;;;;;;;;;;;18.21;100.00;101658.72;4940546;29;19992;-80
2022/07/07 21:28:09;;;;;;;;;;;;;;;18.17;100.00;101663.78;4939382;29;19916;-81
2022/07/07 21:30:35;;;;;;;;;;;;;;;18.10;100.00;101663.03;4943499;29;19899;-82
2022/07/07 21:33:00;;;;;;;;;;;;;;;18.11;100.00;101667.44;4975237;28;19930;-82
2022/07/07 21:35:26;;;;;;;;;;;;;;;18.09;100.00;101664.13;4979820;28;19947;-82
2022/07/07 21:37:51;;;;;;;;;;;;;;;18.10;100.00;101663.03;4977375;29;19918;-81
2022/07/07 21:40:18;;;;;;;;;;;;;;;18.10;100.00;101671.22;4962639;29;19923;-81
2022/07/07 21:42:46;;;;;;;;;;;;;;;18.13;100.00;101668.03;4978131;29;19921;-81
2022/07/07 21:45:12;;;;;;;;;;;;;;;18.15;100.00;101665.94;4961589;29;19907;-81
2022/07/07 21:47:37;;;;;;;;;;;;;;;18.10;100.00;101668.50;4957346;29;19929;-82
2022/07/07 21:50:03;;;;;;;;;;;;;;;18.11;100.00;101675.59;4961358;29;19934;-81
2022/07/07 21:52:29;;;;;;;;;;;;;;;18.08;100.00;101670.63;4978415;28;19954;-81
2022/07/07 21:54:55;;;;;;;;;;;;;;;17.99;100.00;101669.28;4961965;28;19906;-82
2022/07/07 21:57:20;;;;;;;;;;;;;;;17.90;100.00;101676.91;4978463;29;19925;-81
2022/07/07 21:59:46;;;;;;;;;;;;;;;17.80;100.00;101687.47;4959723;29;19938;-81
2022/07/07 22:02:11;;;;;;;;;;;;;;;17.71;100.00;101681.47;4965685;29;19929;-81
2022/07/07 22:07:24;;;;;;;;;;;;;;;17.72;100.00;101685.03;4966999;29;19922;-80
2022/07/07 22:09:50;;;;;;;;;;;;;;;17.71;100.00;101686.91;4960728;29;19911;-81
2022/07/07 22:12:19;;;;;;;;;;;;;;;17.73;100.00;101686.69;4972697;28;19954;-82
2022/07/07 22:14:47;;;;;;;;;;;;;;;17.70;100.00;101690.69;4940391;29;19915;-80
2022/07/07 22:17:13;;;;;;;;;;;;;;;17.65;100.00;101687.81;4943445;29;19923;-82
2022/07/07 22:19:54;;;;;;;;;;;;;;;17.58;100.00;101682.44;4946163;29;19930;-82
2022/07/07 22:22:19;;;;;;;;;;;;;;;17.59;100.00;101683.28;4953302;28;19915;-82
2022/07/07 22:27:20;;;;;;;;;;;;;;;17.54;100.00;101696.72;5410028;23;19960;-83
2022/07/07 22:32:20;;;;;;;;;;;;;;;17.43;100.00;101678.41;5512164;23;19977;-82
2022/07/07 22:39:56;;;;;;;;;;;;;;;17.22;100.00;101683.19;5188154;23;19931;-82
2022/07/07 22:42:21;;;;;;;;;;;;;;;17.16;100.00;101683.25;4942099;29;19962;-82
2022/07/07 22:44:47;;;;;;;;;;;;;;;17.11;100.00;101689.31;4939493;29;19922;-82
2022/07/07 22:47:12;;;;;;;;;;;;;;;17.11;100.00;101686.59;4956958;28;19930;-82
2022/07/07 22:49:38;;;;;;;;;;;;;;;17.06;100.00;101683.72;4942833;29;19913;-81
2022/07/07 22:52:05;;;;;;;;;;;;;;;17.07;100.00;101691.66;4957486;29;19970;-82
2022/07/07 22:54:31;;;;;;;;;;;;;;;17.04;100.00;101686.66;4956787;29;19949;-81
2022/07/07 22:56:56;;;;;;;;;;;;;;;17.02;100.00;101685.19;4922647;29;19907;-81
2022/07/07 22:59:22;;;;;;;;;;;;;;;16.98;100.00;101683.97;4921459;29;19939;-81
2022/07/07 23:01:52;;;;;;;;;;;;;;;16.98;100.00;101675.81;4935783;29;19926;-80
2022/07/07 23:04:18;;;;;;;;;;;;;;;16.96;100.00;101683.38;4961075;29;19923;-81
2022/07/07 23:06:43;;;;;;;;;;;;;;;16.95;100.00;101678.97;4957959;29;20008;-81
2022/07/07 23:09:09;;;;;;;;;;;;;;;16.96;100.00;101686.09;4932151;29;19922;-81
2022/07/07 23:11:34;;;;;;;;;;;;;;;16.94;100.00;101672.72;4960492;29;19906;-81
2022/07/07 23:14:00;;;;;;;;;;;;;;;16.91;100.00;101678.59;4942936;29;19929;-81
2022/07/07 23:16:27;;;;;;;;;;;;;;;16.90;100.00;101657.91;4958128;29;19994;-79
2022/07/07 23:18:52;;;;;;;;;;;;;;;16.90;100.00;101655.19;4936038;29;19923;-79
2022/07/07 23:21:18;;;;;;;;;;;;;;;16.88;100.00;101651.84;4941925;29;19915;-80
2022/07/07 23:23:43;;;;;;;;;;;;;;;16.86;100.00;101654.81;4947737;29;19919;-79
2022/07/07 23:26:08;;;;;;;;;;;;;;;16.83;100.00;101647.09;4931489;29;19989;-79
2022/07/07 23:28:34;;;;;;;;;;;;;;;16.78;100.00;101651.50;4933018;29;19930;-79
2022/07/07 23:30:59;;;;;;;;;;;;;;;16.78;100.00;101652.34;4936976;29;19906;-83
2022/07/07 23:33:24;;;;;;;;;;;;;;;16.78;100.00;101654.22;5188628;23;19911;-83
